createdAt,value
2023-07-10T00:01:07.948Z,17.40
2023-07-10T00:04:49.779Z,17.40
2023-07-10T00:08:31.569Z,17.40
2023-07-10T00:12:17.518Z,17.30
2023-07-10T00:15:59.365Z,17.30
2023-07-10T00:19:42.655Z,17.20
2023-07-10T00:23:24.440Z,17.20
2023-07-10T00:27:13.410Z,17.10
2023-07-10T00:30:55.252Z,17.10
2023-07-10T00:34:37.026Z,17.10
2023-07-10T00:38:28.849Z,17.00
2023-07-10T00:42:10.608Z,17.00
2023-07-10T00:45:52.610Z,16.90
2023-07-10T00:49:46.439Z,16.90
2023-07-10T00:53:33.556Z,16.90
2023-07-10T00:57:23.192Z,16.80
2023-07-10T01:01:09.279Z,16.80
2023-07-10T01:04:54.854Z,16.80
2023-07-10T01:08:37.948Z,16.70
2023-07-10T01:12:19.915Z,16.70
2023-07-10T01:16:02.608Z,16.70
2023-07-10T01:19:46.985Z,16.70
2023-07-10T01:23:28.814Z,16.60
2023-07-10T01:27:13.512Z,16.60
2023-07-10T01:30:57.354Z,16.60
2023-07-10T01:34:56.481Z,16.60
2023-07-10T01:38:39.339Z,16.50
2023-07-10T01:42:21.648Z,16.50
2023-07-10T01:46:16.708Z,16.50
2023-07-10T01:49:59.183Z,16.40
2023-07-10T01:53:42.950Z,16.40
2023-07-10T01:57:25.460Z,16.30
2023-07-10T02:01:07.281Z,16.30
2023-07-10T02:04:49.210Z,16.30
2023-07-10T02:08:31.071Z,16.30
2023-07-10T02:12:12.811Z,16.20
2023-07-10T02:15:55.433Z,16.20
2023-07-10T02:19:37.200Z,16.20
2023-07-10T02:23:18.984Z,16.10
2023-07-10T02:27:01.172Z,16.10
2023-07-10T02:30:42.894Z,16.00
2023-07-10T02:34:24.653Z,16.00
2023-07-10T02:38:06.409Z,16.00
2023-07-10T02:41:48.181Z,15.90
2023-07-10T02:45:29.922Z,15.90
2023-07-10T02:49:11.659Z,15.90
2023-07-10T02:52:53.482Z,15.90
2023-07-10T02:56:35.269Z,15.90
2023-07-10T03:00:17.131Z,15.90
2023-07-10T03:03:58.873Z,15.90
2023-07-10T03:07:40.586Z,15.90
2023-07-10T03:11:23.024Z,15.80
2023-07-10T03:15:05.579Z,15.80
2023-07-10T03:18:47.330Z,15.70
2023-07-10T03:22:29.063Z,15.70
2023-07-10T03:26:10.822Z,15.60
2023-07-10T03:29:52.560Z,15.60
2023-07-10T03:33:34.796Z,15.60
2023-07-10T03:37:16.745Z,15.50
2023-07-10T03:40:58.928Z,15.50
2023-07-10T03:44:40.791Z,15.50
2023-07-10T03:48:22.664Z,15.50
2023-07-10T03:52:05.581Z,15.50
2023-07-10T03:55:48.343Z,15.50
2023-07-10T03:59:30.193Z,15.50
2023-07-10T04:03:12.038Z,15.50
2023-07-10T04:06:53.867Z,15.50
2023-07-10T04:10:37.303Z,15.50
2023-07-10T04:14:19.089Z,15.50
2023-07-10T04:18:00.935Z,15.50
2023-07-10T04:21:42.694Z,15.50
2023-07-10T04:25:24.714Z,15.50
2023-07-10T04:29:07.570Z,15.50
2023-07-10T04:32:49.372Z,15.50
2023-07-10T04:36:31.175Z,15.60
2023-07-10T04:40:13.047Z,15.70
2023-07-10T04:43:54.939Z,15.70
2023-07-10T04:47:36.795Z,15.70
2023-07-10T04:51:19.427Z,15.80
2023-07-10T04:55:01.293Z,15.80
2023-07-10T04:58:53.497Z,15.90
2023-07-10T05:02:35.363Z,16.00
2023-07-10T05:06:17.501Z,16.00
2023-07-10T05:09:59.325Z,16.10
2023-07-10T05:13:41.175Z,16.20
2023-07-10T05:17:23.120Z,16.30
2023-07-10T05:21:04.999Z,16.30
2023-07-10T05:24:47.015Z,16.40
2023-07-10T05:28:29.126Z,16.40
2023-07-10T05:32:11.038Z,16.50
2023-07-10T05:35:53.900Z,16.60
2023-07-10T05:39:35.757Z,16.80
2023-07-10T05:43:20.960Z,17.00
2023-07-10T05:47:02.718Z,17.50
2023-07-10T05:50:45.806Z,18.00
2023-07-10T05:54:27.590Z,18.50
2023-07-10T05:58:48.699Z,18.90
2023-07-10T06:02:30.571Z,19.30
2023-07-10T06:06:12.524Z,19.80
2023-07-10T06:09:54.288Z,20.10
2023-07-10T06:13:36.187Z,20.40
2023-07-10T06:17:17.962Z,20.60
2023-07-10T06:21:00.579Z,20.70
2023-07-10T06:24:42.376Z,20.60
2023-07-10T06:28:24.511Z,20.60
2023-07-10T06:32:06.747Z,20.70
2023-07-10T06:35:48.603Z,20.90
2023-07-10T06:39:30.394Z,21.00
2023-07-10T06:43:12.122Z,21.00
2023-07-10T06:46:53.872Z,20.80
2023-07-10T06:50:35.694Z,20.60
2023-07-10T06:54:17.432Z,20.50
2023-07-10T06:57:59.239Z,20.30
2023-07-10T07:01:41.075Z,20.20
2023-07-10T07:05:22.859Z,20.10
2023-07-10T07:09:04.736Z,20.10
2023-07-10T07:12:46.486Z,20.20
2023-07-10T07:16:28.286Z,20.60
2023-07-10T07:20:10.250Z,20.90
2023-07-10T07:23:52.154Z,21.20
2023-07-10T07:27:34.021Z,21.40
2023-07-10T07:31:15.853Z,21.50
2023-07-10T07:34:57.612Z,21.40
2023-07-10T07:38:39.359Z,21.30
2023-07-10T07:42:21.705Z,21.30
2023-07-10T07:46:04.391Z,21.50
2023-07-10T07:49:46.562Z,21.70
2023-07-10T07:53:29.928Z,21.60
2023-07-10T07:57:11.644Z,21.50
2023-07-10T08:00:53.448Z,21.50
2023-07-10T08:04:35.382Z,21.40
2023-07-10T08:08:17.671Z,21.50
2023-07-10T08:12:00.634Z,21.60
2023-07-10T08:15:43.755Z,21.60
2023-07-10T08:19:25.502Z,21.60
2023-07-10T08:23:07.292Z,21.70
2023-07-10T08:26:49.296Z,21.80
2023-07-10T08:30:31.316Z,21.80
2023-07-10T08:34:13.260Z,21.80
2023-07-10T08:37:55.645Z,21.80
2023-07-10T08:41:37.660Z,21.60
2023-07-10T08:45:38.521Z,21.60
2023-07-10T08:49:31.259Z,21.60
2023-07-10T08:53:14.326Z,21.50
2023-07-10T08:57:10.691Z,21.50
2023-07-10T09:00:56.489Z,21.60
2023-07-10T09:04:38.964Z,21.80
2023-07-10T09:08:21.558Z,21.90
2023-07-10T09:12:09.468Z,22.00
2023-07-10T09:15:53.808Z,22.10
2023-07-10T09:19:35.780Z,22.10
2023-07-10T09:23:25.575Z,22.00
2023-07-10T09:27:12.385Z,22.00
2023-07-10T09:31:12.660Z,22.00
2023-07-10T09:34:59.332Z,22.00
2023-07-10T09:38:43.484Z,22.00
2023-07-10T09:42:32.267Z,22.00
2023-07-10T09:46:14.350Z,22.10
2023-07-10T09:49:57.687Z,22.10
2023-07-10T09:53:46.961Z,22.10
2023-07-10T09:57:29.309Z,22.10
2023-07-10T10:01:12.106Z,22.10
2023-07-10T10:05:01.355Z,22.10
2023-07-10T10:08:47.378Z,22.10
2023-07-10T10:12:31.247Z,22.10
2023-07-10T10:16:32.096Z,22.00
2023-07-10T10:20:18.593Z,22.00
2023-07-10T10:24:05.837Z,22.10
2023-07-10T10:27:56.904Z,22.10
2023-07-10T10:31:44.912Z,22.20
2023-07-10T10:35:32.654Z,22.20
2023-07-10T10:39:22.359Z,22.40
2023-07-10T10:43:22.618Z,22.50
2023-07-10T10:47:07.210Z,22.50
2023-07-10T10:51:17.397Z,22.60
2023-07-10T10:55:11.723Z,22.80
2023-07-10T10:59:01.582Z,22.80
2023-07-10T11:02:43.343Z,22.80
2023-07-10T11:06:27.933Z,22.80
2023-07-10T11:10:15.883Z,22.70
2023-07-10T11:13:57.829Z,22.80
2023-07-10T11:17:40.106Z,22.90
2023-07-10T11:21:22.632Z,23.00
2023-07-10T11:25:04.776Z,23.00
2023-07-10T11:29:09.581Z,23.10
2023-07-10T11:32:57.510Z,23.10
2023-07-10T11:36:45.815Z,23.00
2023-07-10T11:40:27.555Z,22.90
2023-07-10T11:44:15.214Z,22.90
2023-07-10T11:47:57.046Z,22.90
2023-07-10T11:51:40.004Z,23.00
2023-07-10T11:55:25.890Z,23.20
2023-07-10T11:59:23.090Z,23.30
2023-07-10T12:03:12.712Z,23.40
2023-07-10T12:06:57.709Z,23.50
2023-07-10T12:10:39.583Z,23.60
2023-07-10T12:14:21.690Z,23.60
2023-07-10T12:18:06.283Z,23.70
2023-07-10T12:21:48.082Z,23.70
2023-07-10T12:25:29.821Z,23.70
2023-07-10T12:29:15.617Z,23.70
2023-07-10T12:32:57.630Z,23.70
2023-07-10T12:36:39.953Z,23.80
2023-07-10T12:40:21.764Z,23.80
2023-07-10T12:44:03.768Z,23.80
2023-07-10T12:47:58.622Z,23.80
2023-07-10T12:51:42.761Z,23.70
2023-07-10T12:55:29.939Z,23.60
2023-07-10T12:59:20.936Z,23.50
2023-07-10T13:03:02.992Z,23.30
2023-07-10T13:06:45.470Z,23.20
2023-07-10T13:10:40.330Z,23.00
2023-07-10T13:14:30.212Z,22.80
2023-07-10T13:18:31.284Z,22.60
2023-07-10T13:22:13.268Z,22.30
2023-07-10T13:25:56.729Z,22.00
2023-07-10T13:29:38.509Z,21.80
2023-07-10T13:33:24.408Z,21.60
2023-07-10T13:37:26.429Z,21.50
2023-07-10T13:41:12.844Z,21.50
2023-07-10T13:44:55.818Z,21.40
2023-07-10T13:48:37.710Z,21.30
2023-07-10T13:52:21.148Z,21.30
2023-07-10T13:56:03.122Z,21.20
2023-07-10T13:59:45.268Z,21.20
2023-07-10T14:03:27.136Z,21.20
2023-07-10T14:07:10.017Z,21.10
2023-07-10T14:10:52.044Z,21.10
2023-07-10T14:14:33.793Z,21.00
2023-07-10T14:18:18.004Z,20.90
2023-07-10T14:21:59.814Z,20.90
2023-07-10T14:25:41.833Z,20.80
2023-07-10T14:29:23.639Z,20.80
2023-07-10T14:33:05.873Z,20.70
2023-07-10T14:36:47.904Z,20.80
2023-07-10T14:40:29.652Z,20.70
2023-07-10T14:44:11.480Z,20.80
2023-07-10T14:47:53.267Z,20.80
2023-07-10T14:51:35.121Z,20.90
2023-07-10T14:55:18.892Z,20.90
2023-07-10T14:59:00.721Z,20.90
2023-07-10T15:02:42.531Z,20.80
2023-07-10T15:06:29.318Z,20.80
2023-07-10T15:10:25.378Z,20.90
2023-07-10T15:14:12.614Z,20.90
2023-07-10T15:17:55.021Z,21.10
2023-07-10T15:21:36.797Z,21.20
2023-07-10T15:25:21.256Z,21.30
2023-07-10T15:29:04.475Z,21.30
2023-07-10T15:32:46.838Z,21.30
2023-07-10T15:36:28.614Z,21.30
2023-07-10T15:40:16.543Z,21.30
2023-07-10T15:43:58.348Z,21.40
2023-07-10T15:47:40.667Z,21.40
2023-07-10T15:51:26.841Z,21.50
2023-07-10T15:55:20.230Z,21.50
2023-07-10T15:59:02.069Z,21.40
2023-07-10T16:02:46.538Z,21.50
2023-07-10T16:06:30.134Z,21.60
2023-07-10T16:10:13.854Z,21.80
2023-07-10T16:13:55.613Z,21.90
2023-07-10T16:17:37.437Z,22.00
2023-07-10T16:21:21.644Z,22.00
2023-07-10T16:25:03.990Z,22.10
2023-07-10T16:28:46.191Z,22.20
2023-07-10T16:32:28.004Z,22.10
2023-07-10T16:36:12.410Z,22.20
2023-07-10T16:39:54.154Z,22.10
2023-07-10T16:43:36.022Z,22.00
2023-07-10T16:47:18.805Z,21.90
2023-07-10T16:51:02.459Z,21.80
2023-07-10T16:54:44.523Z,21.80
2023-07-10T16:58:27.655Z,21.70
2023-07-10T17:02:23.623Z,21.60
2023-07-10T17:06:05.612Z,21.60
2023-07-10T17:09:47.484Z,21.40
2023-07-10T17:13:31.399Z,21.40
2023-07-10T17:17:20.154Z,21.30
2023-07-10T17:21:03.479Z,21.30
2023-07-10T17:24:45.392Z,21.30
2023-07-10T17:28:28.878Z,21.30
2023-07-10T17:32:17.560Z,21.30
2023-07-10T17:35:59.810Z,21.20
2023-07-10T17:39:41.899Z,21.20
2023-07-10T17:43:23.728Z,21.10
2023-07-10T17:47:05.493Z,21.10
2023-07-10T17:50:47.890Z,21.00
2023-07-10T17:54:30.479Z,20.90
2023-07-10T17:58:16.336Z,20.90
2023-07-10T18:01:59.781Z,20.80
2023-07-10T18:05:41.964Z,20.70
2023-07-10T18:09:25.267Z,20.70
2023-07-10T18:13:14.598Z,20.70
2023-07-10T18:16:56.390Z,20.60
2023-07-10T18:20:38.209Z,20.60
2023-07-10T18:24:21.380Z,20.60
2023-07-10T18:28:03.246Z,20.60
2023-07-10T18:31:45.357Z,20.60
2023-07-10T18:35:27.229Z,20.50
2023-07-10T18:39:11.644Z,20.50
2023-07-10T18:42:53.422Z,20.40
2023-07-10T18:46:35.284Z,20.40
2023-07-10T18:50:18.047Z,20.40
2023-07-10T18:54:01.957Z,20.40
2023-07-10T18:57:43.835Z,20.40
2023-07-10T19:01:26.150Z,20.30
2023-07-10T19:05:08.429Z,20.30
2023-07-10T19:08:50.411Z,20.30
2023-07-10T19:12:32.166Z,20.20
2023-07-10T19:16:25.363Z,20.20
2023-07-10T19:20:16.072Z,20.20
2023-07-10T19:23:58.056Z,20.10
2023-07-10T19:27:39.806Z,20.00
2023-07-10T19:31:22.690Z,20.00
2023-07-10T19:35:04.813Z,19.90
2023-07-10T19:38:46.809Z,19.90
2023-07-10T19:42:28.684Z,19.90
2023-07-10T19:46:18.788Z,19.90
2023-07-10T19:50:00.621Z,19.80
2023-07-10T19:53:42.731Z,19.70
2023-07-10T19:57:28.265Z,19.70
2023-07-10T20:01:11.888Z,19.60
2023-07-10T20:04:53.657Z,19.60
2023-07-10T20:08:35.818Z,19.60
2023-07-10T20:12:21.910Z,19.50
2023-07-10T20:16:05.432Z,19.50
2023-07-10T20:19:47.623Z,19.50
2023-07-10T20:23:29.432Z,19.50
2023-07-10T20:27:11.528Z,19.40
2023-07-10T20:30:54.126Z,19.40
2023-07-10T20:34:35.911Z,19.40
2023-07-10T20:38:20.495Z,19.40
2023-07-10T20:42:04.262Z,19.30
2023-07-10T20:45:50.381Z,19.40
2023-07-10T20:49:32.333Z,19.40
2023-07-10T20:53:14.517Z,19.40
2023-07-10T20:56:56.281Z,19.30
2023-07-10T21:00:38.318Z,19.30
2023-07-10T21:04:20.433Z,19.30
2023-07-10T21:08:02.540Z,19.30
2023-07-10T21:11:44.324Z,19.30
2023-07-10T21:15:26.394Z,19.20
2023-07-10T21:19:14.144Z,19.20
2023-07-10T21:22:56.841Z,19.10
2023-07-10T21:26:39.248Z,19.10
2023-07-10T21:30:21.648Z,19.10
2023-07-10T21:34:05.947Z,19.10
2023-07-10T21:37:47.714Z,19.10
2023-07-10T21:41:30.757Z,19.10
2023-07-10T21:45:15.158Z,19.00
2023-07-10T21:48:57.410Z,19.00
2023-07-10T21:52:39.192Z,19.00
2023-07-10T21:56:22.716Z,18.90
2023-07-10T22:00:09.004Z,18.90
2023-07-10T22:03:50.841Z,18.90
2023-07-10T22:07:32.646Z,18.80
2023-07-10T22:11:16.765Z,18.80
2023-07-10T22:14:58.538Z,18.80
2023-07-10T22:18:40.528Z,18.80
2023-07-10T22:22:22.984Z,18.70
2023-07-10T22:26:05.147Z,18.70
2023-07-10T22:29:47.247Z,18.70
2023-07-10T22:33:30.300Z,18.60
2023-07-10T22:37:12.124Z,18.60
2023-07-10T22:40:56.266Z,18.60
2023-07-10T22:44:38.092Z,18.60
2023-07-10T22:48:19.890Z,18.50
2023-07-10T22:52:01.655Z,18.50
2023-07-10T22:55:43.426Z,18.50
2023-07-10T22:59:25.195Z,18.40
2023-07-10T23:03:07.224Z,18.40
2023-07-10T23:06:49.143Z,18.30
2023-07-10T23:10:31.330Z,18.30
2023-07-10T23:14:13.074Z,18.30
2023-07-10T23:17:54.869Z,18.30
2023-07-10T23:21:36.658Z,18.30
2023-07-10T23:25:18.637Z,18.20
2023-07-10T23:29:01.546Z,18.20
2023-07-10T23:32:43.398Z,18.20
2023-07-10T23:36:26.621Z,18.20
2023-07-10T23:40:16.763Z,18.20
2023-07-10T23:43:58.652Z,18.20
2023-07-10T23:47:41.746Z,18.20
2023-07-10T23:51:23.560Z,18.20
2023-07-10T23:55:08.128Z,18.20
2023-07-10T23:58:49.932Z,18.30
